Time;durP1;ratioP1;P1;durP2;ratioP2;P2;SDS_P1;SDS_P2;PMS_P1;PMS_P2;Temp;Humidity;BMP_temperature;BMP_pressure;BME280_temperature;BME280_humidity;BME280_pressure;Samples;Min_cycle;Max_cycle;Signal;HPM_P1;HPM_P2
2022/05/03 00:02:14;;;;;;;0.43;0.30;;;26.40;95.80;;;;;;5081853;28;20043;-73
2022/05/03 00:05:03;;;;;;;3.28;0.80;;;26.50;96.80;;;;;;5090264;28;20046;-73
2022/05/03 00:07:39;;;;;;;1.70;0.60;;;26.80;95.70;;;;;;5093075;28;20741;-75
2022/05/03 00:10:21;;;;;;;1.92;0.50;;;27.40;95.30;;;;;;5079119;28;20028;-73
2022/05/03 00:13:02;;;;;;;2.63;0.80;;;27.20;95.40;;;;;;5085785;28;20062;-73
2022/05/03 00:15:32;;;;;;;3.53;0.65;;;26.60;95.80;;;;;;5089832;28;20518;-73
2022/05/03 00:18:00;;;;;;;2.25;0.73;;;27.10;95.60;;;;;;5087692;28;20080;-73
2022/05/03 00:20:27;;;;;;;1.88;0.70;;;27.50;95.30;;;;;;5090437;28;20027;-73
2022/05/03 00:22:55;;;;;;;1.20;0.63;;;27.90;94.30;;;;;;5097460;28;20092;-74
2022/05/03 00:25:23;;;;;;;3.25;0.80;;;28.00;94.50;;;;;;5085540;28;20494;-73
2022/05/03 00:27:51;;;;;;;6.90;0.50;;;28.20;94.60;;;;;;5087241;28;20032;-73
2022/05/03 00:30:19;;;;;;;2.05;0.60;;;28.70;93.80;;;;;;5087365;28;20027;-74
2022/05/03 00:32:48;;;;;;;3.83;0.70;;;29.20;92.40;;;;;;5089963;28;20450;-74
2022/05/03 00:35:17;;;;;;;2.85;0.55;;;29.20;93.70;;;;;;5090973;28;20024;-74
2022/05/03 00:37:44;;;;;;;1.20;0.40;;;29.40;92.60;;;;;;5091077;28;20062;-74
2022/05/03 00:40:12;;;;;;;2.10;0.35;;;29.20;92.70;;;;;;5089607;28;20426;-72
2022/05/03 00:43:11;;;;;;;2.60;0.50;;;29.20;92.50;;;;;;5090703;28;20130;-74
2022/05/03 00:45:59;;;;;;;1.67;0.35;;;29.50;92.60;;;;;;5093630;28;20024;-72
2022/05/03 00:48:47;;;;;;;1.70;0.55;;;29.90;92.10;;;;;;5075989;28;20525;-72
2022/05/03 00:51:18;;;;;;;1.40;0.60;;;30.20;91.60;;;;;;5080074;28;20042;-75
2022/05/03 00:54:15;;;;;;;1.63;0.60;;;30.40;90.60;;;;;;5084401;28;20044;-73
2022/05/03 00:57:16;;;;;;;4.22;0.70;;;30.20;90.70;;;;;;5084393;28;20115;-74
2022/05/03 01:00:07;;;;;;;1.33;0.47;;;30.40;91.00;;;;;;5082460;28;20032;-77
2022/05/03 01:03:11;;;;;;;2.20;0.75;;;30.30;90.70;;;;;;5076127;28;20050;-75
2022/05/03 01:05:58;;;;;;;1.13;0.40;;;30.10;91.00;;;;;;5045075;28;20040;-74
2022/05/03 01:08:38;;;;;;;0.43;0.20;;;30.10;91.30;;;;;;5079055;28;20039;-71
2022/05/03 01:11:50;;;;;;;3.42;0.82;;;30.20;90.20;;;;;;5074301;28;20031;-73
2022/05/03 01:14:42;;;;;;;2.40;0.77;;;30.40;89.90;;;;;;5013971;28;20054;-73
2022/05/03 01:17:22;;;;;;;1.60;0.75;;;29.80;90.80;;;;;;5055932;28;20160;-72
2022/05/03 01:20:03;;;;;;;1.27;0.20;;;29.80;91.30;;;;;;5073477;28;20213;-71
2022/05/03 01:22:52;;;;;;;0.82;0.82;;;29.60;90.60;;;;;;5075471;28;20039;-75
2022/05/03 01:25:53;;;;;;;3.85;0.75;;;29.40;91.30;;;;;;5073029;28;20032;-73
2022/05/03 01:28:47;;;;;;;2.05;0.43;;;29.70;90.60;;;;;;5078054;28;20166;-73
2022/05/03 01:31:17;;;;;;;3.60;0.85;;;29.80;89.00;;;;;;5056695;28;20020;-73
2022/05/03 01:33:45;;;;;;;4.05;0.30;;;29.30;90.80;;;;;;5072979;28;20035;-74
2022/05/03 01:36:23;;;;;;;2.63;0.50;;;29.10;90.40;;;;;;5073143;28;20020;-74
2022/05/03 01:39:29;;;;;;;2.15;0.32;;;29.30;91.20;;;;;;5080332;28;20368;-74
2022/05/03 01:42:10;;;;;;;3.72;0.93;;;29.20;90.30;;;;;;5072889;28;20032;-75
2022/05/03 01:44:40;;;;;;;1.38;0.57;;;29.10;90.30;;;;;;5072837;28;20082;-74
2022/05/03 01:47:30;;;;;;;1.02;0.22;;;28.90;90.90;;;;;;5068541;28;20086;-75
2022/05/03 01:50:41;;;;;;;0.95;0.25;;;29.20;90.60;;;;;;5070510;28;20055;-73
2022/05/03 01:53:17;;;;;;;1.88;0.30;;;28.90;90.00;;;;;;5068426;28;20128;-74
2022/05/03 01:55:59;;;;;;;3.90;0.38;;;29.20;91.00;;;;;;5073239;28;20024;-74
2022/05/03 01:58:57;;;;;;;2.80;0.30;;;28.80;89.60;;;;;;5069753;28;20078;-75
2022/05/03 02:01:43;;;;;;;1.48;0.30;;;28.50;90.30;;;;;;5073447;28;20130;-73
2022/05/03 02:04:30;;;;;;;2.03;0.85;;;28.10;90.40;;;;;;5070689;28;20025;-74
2022/05/03 02:07:09;;;;;;;2.72;0.50;;;28.20;89.80;;;;;;5072638;28;20040;-73
2022/05/03 02:10:05;;;;;;;1.92;0.52;;;28.30;90.70;;;;;;5073942;28;20355;-74
2022/05/03 02:12:34;;;;;;;1.88;0.40;;;28.10;90.70;;;;;;5072639;28;20101;-75
2022/05/03 02:15:09;;;;;;;0.82;0.30;;;28.10;90.80;;;;;;5075211;28;20024;-74
2022/05/03 02:17:58;;;;;;;1.98;0.40;;;27.90;90.80;;;;;;5074013;28;20161;-74
2022/05/03 02:20:33;;;;;;;2.33;0.88;;;27.80;90.00;;;;;;5074533;28;20382;-76
2022/05/03 02:23:18;;;;;;;;;;;27.80;90.60;;;;;;5073602;28;20039;-74
2022/05/03 02:26:12;;;;;;;0.82;0.50;;;27.80;91.10;;;;;;5075044;28;20004;-73
2022/05/03 02:29:09;;;;;;;3.50;1.05;;;27.70;89.90;;;;;;5076583;28;20038;-74
2022/05/03 02:32:05;;;;;;;2.28;0.30;;;27.70;87.50;;;;;;5072904;28;20028;-72
2022/05/03 02:34:36;;;;;;;2.42;0.47;;;27.60;87.50;;;;;;5072820;28;20038;-75
2022/05/03 02:37:34;;;;;;;1.15;0.50;;;27.50;89.80;;;;;;5079129;28;20020;-76
2022/05/03 02:40:07;;;;;;;3.40;0.40;;;27.80;89.70;;;;;;5070697;28;20040;-76
2022/05/03 02:42:35;;;;;;;1.70;0.40;;;28.00;88.20;;;;;;5071521;28;20043;-76
2022/05/03 02:45:05;;;;;;;5.50;0.98;;;28.00;88.30;;;;;;5070850;28;20020;-75
2022/05/03 02:47:45;;;;;;;2.70;1.17;;;28.20;88.60;;;;;;5070487;28;20521;-74
2022/05/03 02:50:23;;;;;;;4.05;0.88;;;28.40;88.30;;;;;;5070363;28;20040;-75
2022/05/03 02:53:16;;;;;;;1.50;0.52;;;28.40;87.60;;;;;;5071827;28;20024;-75
2022/05/03 02:55:53;;;;;;;2.45;0.40;;;28.10;87.60;;;;;;5067660;28;20040;-75
2022/05/03 02:58:38;;;;;;;0.68;0.40;;;28.20;88.90;;;;;;5070638;28;20035;-76
2022/05/03 03:01:48;;;;;;;1.70;0.30;;;27.90;88.60;;;;;;5072338;28;20035;-74
2022/05/03 03:04:39;;;;;;;0.65;0.30;;;27.70;87.50;;;;;;5071863;28;20505;-75
2022/05/03 03:07:06;;;;;;;1.55;0.20;;;27.50;89.40;;;;;;5071506;28;20020;-76
2022/05/03 03:09:46;;;;;;;3.83;0.93;;;27.50;86.40;;;;;;5070997;28;20032;-78
2022/05/03 03:12:43;;;;;;;2.03;0.20;;;27.70;87.30;;;;;;5070747;28;20028;-77
2022/05/03 03:15:14;;;;;;;0.80;0.43;;;27.70;87.30;;;;;;5069621;28;20494;-76
2022/05/03 03:17:46;;;;;;;0.52;0.20;;;27.70;86.30;;;;;;5070975;28;20062;-74
2022/05/03 03:20:17;;;;;;;0.50;0.30;;;27.40;85.70;;;;;;5070903;28;20032;-74
2022/05/03 03:22:46;;;;;;;1.88;0.25;;;27.10;86.40;;;;;;5072196;28;20036;-75
2022/05/03 03:25:19;;;;;;;0.98;0.20;;;27.00;87.50;;;;;;5070865;28;20078;-72
2022/05/03 03:27:49;;;;;;;4.00;0.38;;;27.00;87.00;;;;;;5074588;28;20035;-72
2022/05/03 03:30:18;;;;;;;0.30;0.10;;;26.80;86.20;;;;;;5073013;28;20017;-73
2022/05/03 03:32:55;;;;;;;0.98;0.20;;;26.60;87.40;;;;;;5052836;28;20025;-73
2022/05/03 03:35:24;;;;;;;1.17;0.30;;;26.60;87.30;;;;;;5071001;28;20094;-76
2022/05/03 03:37:53;;;;;;;3.40;0.22;;;26.30;86.30;;;;;;5079936;28;20451;-74
2022/05/03 03:40:21;;;;;;;1.58;0.75;;;26.10;86.20;;;;;;5071909;28;20032;-75
2022/05/03 03:42:49;;;;;;;2.55;1.33;;;25.90;87.30;;;;;;5069882;28;20066;-77
2022/05/03 03:45:18;;;;;;;0.98;0.17;;;25.70;88.20;;;;;;5072415;28;20024;-74
2022/05/03 03:47:47;;;;;;;0.93;0.30;;;25.60;87.90;;;;;;5072479;28;20487;-76
2022/05/03 03:50:15;;;;;;;1.45;0.38;;;25.40;88.30;;;;;;5072022;28;20466;-76
2022/05/03 03:52:44;;;;;;;0.60;0.20;;;25.10;89.30;;;;;;5070146;28;20059;-76
2022/05/03 03:55:13;;;;;;;0.47;0.10;;;24.90;90.20;;;;;;5073107;28;20044;-75
2022/05/03 03:57:41;;;;;;;2.08;0.17;;;24.70;87.80;;;;;;5071702;28;20475;-76
2022/05/03 04:00:11;;;;;;;1.52;0.10;;;24.70;89.90;;;;;;5083290;28;20383;-73
2022/05/03 04:02:41;;;;;;;2.38;0.47;;;24.90;90.00;;;;;;5080766;28;20043;-73
2022/05/03 04:05:22;;;;;;;0.60;0.10;;;24.90;89.20;;;;;;5071967;28;20056;-74
2022/05/03 04:07:51;;;;;;;0.63;0.25;;;24.80;87.30;;;;;;5071048;28;20028;-76
2022/05/03 04:10:18;;;;;;;0.77;0.43;;;24.70;89.40;;;;;;5072077;28;20016;-75
2022/05/03 04:12:46;;;;;;;1.10;0.20;;;24.80;88.30;;;;;;5073133;28;21974;-73
2022/05/03 04:15:13;;;;;;;0.60;0.20;;;24.70;88.40;;;;;;5072095;28;20370;-75
2022/05/03 04:17:41;;;;;;;1.50;0.20;;;24.70;89.50;;;;;;5074635;28;20394;-72
2022/05/03 04:20:09;;;;;;;1.92;0.30;;;24.60;90.00;;;;;;5075845;28;20021;-74
2022/05/03 04:22:36;;;;;;;0.93;0.28;;;24.60;90.10;;;;;;5075017;28;20482;-72
2022/05/03 04:25:04;;;;;;;4.00;0.45;;;24.40;89.90;;;;;;5074783;28;20028;-72
2022/05/03 04:27:32;;;;;;;3.67;0.32;;;24.20;90.50;;;;;;5075374;28;20040;-73
2022/05/03 04:30:01;;;;;;;1.77;0.30;;;24.10;90.80;;;;;;5078731;28;20073;-74
2022/05/03 04:32:30;;;;;;;1.67;0.30;;;23.90;90.60;;;;;;5078408;28;20051;-73
2022/05/03 04:34:58;;;;;;;0.80;0.30;;;23.80;91.10;;;;;;5086291;28;20016;-73
2022/05/03 04:37:26;;;;;;;0.55;0.20;;;23.70;90.60;;;;;;5089191;28;20020;-72
2022/05/03 04:39:53;;;;;;;3.47;0.22;;;23.60;90.10;;;;;;5088783;28;20020;-76
2022/05/03 04:42:20;;;;;;;4.78;0.38;;;23.50;90.10;;;;;;5088326;28;20041;-74
2022/05/03 04:44:48;;;;;;;0.85;0.15;;;23.40;90.80;;;;;;5090872;28;20093;-77
2022/05/03 04:47:15;;;;;;;2.95;0.30;;;23.50;90.50;;;;;;5096152;28;20081;-75
2022/05/03 04:49:42;;;;;;;2.45;0.20;;;23.50;90.60;;;;;;5092896;28;20064;-73
2022/05/03 04:52:10;;;;;;;2.78;0.30;;;23.60;90.00;;;;;;5089833;28;20024;-74
2022/05/03 04:54:38;;;;;;;0.90;0.25;;;23.50;90.50;;;;;;5091031;28;20074;-73
2022/05/03 04:57:07;;;;;;;0.38;0.10;;;23.40;90.60;;;;;;5088458;28;20020;-73
2022/05/03 04:59:36;;;;;;;2.58;0.30;;;23.30;90.60;;;;;;5093728;28;20077;-73
2022/05/03 05:02:03;;;;;;;1.00;0.17;;;23.20;90.40;;;;;;5105686;28;20035;-73
2022/05/03 05:04:31;;;;;;;0.43;0.10;;;23.20;90.20;;;;;;5069921;28;20627;-73
2022/05/03 05:06:58;;;;;;;0.40;0.20;;;23.20;91.10;;;;;;5090367;28;20412;-75
2022/05/03 05:09:25;;;;;;;1.92;0.17;;;23.20;90.70;;;;;;5089619;28;20079;-78
2022/05/03 05:11:53;;;;;;;1.33;0.10;;;23.10;90.50;;;;;;5085084;28;20028;-73
2022/05/03 05:14:20;;;;;;;1.23;0.20;;;23.20;90.20;;;;;;5087169;28;20482;-74
2022/05/03 05:16:49;;;;;;;2.67;0.20;;;23.20;90.40;;;;;;5090653;28;20028;-73
2022/05/03 05:19:17;;;;;;;1.33;0.30;;;23.10;90.40;;;;;;5087509;28;20028;-73
2022/05/03 05:21:45;;;;;;;1.20;0.20;;;23.10;90.90;;;;;;5086824;28;20055;-74
2022/05/03 05:24:12;;;;;;;2.90;0.20;;;23.20;90.80;;;;;;5082857;28;20046;-72
2022/05/03 05:26:41;;;;;;;0.25;0.10;;;23.20;91.40;;;;;;5088067;28;20102;-74
2022/05/03 05:29:09;;;;;;;1.27;0.30;;;23.20;91.10;;;;;;5087578;28;20028;-73
2022/05/03 05:31:37;;;;;;;1.40;0.22;;;23.20;91.60;;;;;;5096511;28;20053;-74
2022/05/03 05:34:04;;;;;;;2.08;0.25;;;23.20;92.00;;;;;;5112756;28;20475;-73
2022/05/03 05:36:32;;;;;;;0.90;0.30;;;23.30;91.10;;;;;;5101816;28;20057;-73
2022/05/03 05:39:00;;;;;;;2.85;0.30;;;23.40;91.40;;;;;;5096553;28;20087;-75
2022/05/03 05:41:27;;;;;;;0.15;0.00;;;23.50;90.70;;;;;;5081642;28;20042;-74
2022/05/03 05:43:55;;;;;;;1.77;0.10;;;23.60;90.50;;;;;;5091382;28;20046;-72
2022/05/03 05:46:22;;;;;;;0.10;0.10;;;23.70;90.30;;;;;;5071939;28;20028;-76
2022/05/03 05:48:49;;;;;;;0.88;0.20;;;23.70;89.60;;;;;;5090779;28;20424;-74
2022/05/03 05:51:17;;;;;;;2.50;0.30;;;23.70;89.40;;;;;;5084097;28;20058;-73
2022/05/03 05:53:44;;;;;;;0.45;0.08;;;23.70;89.40;;;;;;5092283;28;20020;-74
2022/05/03 05:56:12;;;;;;;1.40;0.13;;;23.70;89.80;;;;;;5088366;28;20020;-74
2022/05/03 05:58:39;;;;;;;0.85;0.73;;;23.70;90.30;;;;;;5084228;28;20054;-74
2022/05/03 06:01:07;;;;;;;3.92;0.73;;;23.80;90.80;;;;;;5097689;28;20474;-74
2022/05/03 06:03:34;;;;;;;0.95;0.25;;;23.80;90.90;;;;;;5098933;28;20036;-73
2022/05/03 06:06:02;;;;;;;1.45;0.20;;;23.90;90.90;;;;;;5081829;28;20028;-72
2022/05/03 06:08:29;;;;;;;0.45;0.17;;;23.90;91.20;;;;;;5074734;28;20111;-73
2022/05/03 06:10:59;;;;;;;1.45;0.50;;;23.90;90.80;;;;;;5096061;28;20028;-74
2022/05/03 06:13:27;;;;;;;0.68;0.22;;;23.90;90.90;;;;;;5102896;28;20577;-74
2022/05/03 06:15:54;;;;;;;1.13;0.28;;;23.90;91.10;;;;;;5088503;28;20711;-73
2022/05/03 06:18:22;;;;;;;2.92;0.20;;;23.80;91.40;;;;;;5080047;28;20380;-74
2022/05/03 06:20:50;;;;;;;0.50;0.20;;;23.60;91.60;;;;;;5090589;28;20032;-76
2022/05/03 06:23:17;;;;;;;1.77;0.40;;;23.60;91.30;;;;;;5090606;28;20132;-74
2022/05/03 06:25:45;;;;;;;3.42;0.38;;;23.50;91.80;;;;;;5090528;28;20012;-73
2022/05/03 06:28:12;;;;;;;1.95;0.30;;;23.40;92.10;;;;;;5084029;28;20046;-74
2022/05/03 06:30:40;;;;;;;3.17;0.35;;;23.20;92.60;;;;;;5082723;28;20076;-76
2022/05/03 06:33:08;;;;;;;1.08;0.38;;;23.00;92.90;;;;;;5091575;28;20069;-73
2022/05/03 06:35:35;;;;;;;1.50;0.40;;;22.90;93.10;;;;;;5091918;28;20055;-74
2022/05/03 06:38:03;;;;;;;3.25;0.40;;;22.70;93.40;;;;;;5091147;28;20024;-75
2022/05/03 06:40:30;;;;;;;0.85;0.40;;;22.60;93.30;;;;;;5091473;28;20839;-74
2022/05/03 06:42:58;;;;;;;1.48;0.50;;;22.50;93.70;;;;;;5091012;28;20107;-75
2022/05/03 06:45:25;;;;;;;0.77;0.35;;;22.40;93.70;;;;;;5090049;28;20482;-76
2022/05/03 06:47:52;;;;;;;3.13;0.45;;;22.40;93.70;;;;;;5102629;28;20044;-76
2022/05/03 06:50:20;;;;;;;2.38;0.30;;;22.30;94.20;;;;;;5087440;28;20166;-75
2022/05/03 06:52:48;;;;;;;1.15;0.25;;;22.30;94.20;;;;;;5083886;28;20024;-75
2022/05/03 06:55:15;;;;;;;2.97;0.70;;;22.10;94.30;;;;;;5101331;28;20089;-75
2022/05/03 06:57:43;;;;;;;0.90;0.60;;;21.90;94.60;;;;;;5106686;28;20035;-74
2022/05/03 07:00:11;;;;;;;1.45;0.60;;;21.80;94.90;;;;;;5099734;28;20027;-76
2022/05/03 07:02:38;;;;;;;3.72;0.55;;;21.70;95.20;;;;;;5090493;28;20044;-75
2022/05/03 07:05:06;;;;;;;1.08;0.30;;;21.50;95.30;;;;;;5083262;28;20436;-75
2022/05/03 07:07:34;;;;;;;3.20;0.95;;;21.50;95.80;;;;;;5094165;28;20035;-74
2022/05/03 07:10:03;;;;;;;4.85;2.75;;;21.30;96.00;;;;;;5089118;28;20024;-74
2022/05/03 07:12:32;;;;;;;4.07;1.95;;;21.20;96.30;;;;;;5088707;28;20079;-75
2022/05/03 07:15:07;;;;;;;8.52;3.05;;;21.10;96.60;;;;;;5090742;28;20097;-75
2022/05/03 07:23:06;;;;;;;3.50;1.40;;;20.80;97.40;;;;;;5073059;28;20324;-76
2022/05/03 07:25:33;;;;;;;2.78;1.13;;;20.70;97.70;;;;;;5081106;28;20501;-75
2022/05/03 07:28:01;;;;;;;6.63;1.23;;;20.60;97.80;;;;;;5088942;28;20039;-75
2022/05/03 07:30:28;;;;;;;1.50;0.98;;;20.50;98.00;;;;;;5091015;28;20020;-73
2022/05/03 07:32:56;;;;;;;4.18;1.50;;;20.40;98.30;;;;;;5090660;28;20032;-75
2022/05/03 07:35:24;;;;;;;2.25;0.80;;;20.30;98.30;;;;;;5082712;28;20028;-74
2022/05/03 07:37:51;;;;;;;0.93;0.60;;;20.20;98.50;;;;;;5111336;28;20482;-76
2022/05/03 07:40:19;;;;;;;1.60;0.70;;;20.20;98.80;;;;;;5105803;28;20017;-74
2022/05/03 07:42:47;;;;;;;1.95;0.50;;;20.10;99.10;;;;;;5071169;28;20135;-75
2022/05/03 07:45:15;;;;;;;2.50;0.68;;;20.10;99.40;;;;;;5072223;28;20534;-74
2022/05/03 07:47:43;;;;;;;1.95;0.52;;;20.00;99.90;;;;;;5090790;28;20048;-75
2022/05/03 07:50:11;;;;;;;3.88;1.02;;;20.00;99.50;;;;;;5089481;28;20070;-74
2022/05/03 07:52:39;;;;;;;2.80;0.70;;;20.00;99.60;;;;;;5099642;28;20518;-75
2022/05/03 07:55:08;;;;;;;4.28;0.77;;;19.90;99.70;;;;;;5076690;28;20028;-75
2022/05/03 07:57:36;;;;;;;4.53;1.02;;;19.90;99.90;;;;;;5102638;28;20390;-75
2022/05/03 08:00:05;;;;;;;2.80;0.52;;;19.80;99.90;;;;;;5094809;28;20024;-74
2022/05/03 08:02:32;;;;;;;3.35;1.13;;;19.90;99.90;;;;;;5093693;28;20117;-76
2022/05/03 08:05:00;;;;;;;2.78;0.73;;;19.90;99.90;;;;;;5094749;28;20027;-75
2022/05/03 08:07:27;;;;;;;8.50;0.82;;;19.90;99.90;;;;;;5098985;28;20037;-74
2022/05/03 08:09:55;;;;;;;4.55;0.68;;;19.90;99.90;;;;;;5074477;28;20104;-74
2022/05/03 08:12:22;;;;;;;6.32;0.65;;;19.80;99.90;;;;;;5108974;28;20031;-75
2022/05/03 08:14:51;;;;;;;4.18;0.98;;;19.90;99.90;;;;;;5106341;28;20359;-76
2022/05/03 08:17:18;;;;;;;1.13;0.40;;;19.80;99.90;;;;;;5101521;28;20052;-75
2022/05/03 08:19:45;;;;;;;4.28;0.63;;;19.80;99.90;;;;;;5074420;28;20035;-76
2022/05/03 08:22:13;;;;;;;1.83;0.60;;;19.80;99.90;;;;;;5095247;28;20487;-74
2022/05/03 08:24:40;;;;;;;3.03;0.73;;;19.70;99.90;;;;;;5074388;28;20033;-75
2022/05/03 08:27:07;;;;;;;7.03;0.90;;;19.70;99.90;;;;;;5088833;28;20078;-74
2022/05/03 08:29:35;;;;;;;6.63;1.10;;;19.60;99.90;;;;;;5094541;28;20020;-74
2022/05/03 08:32:03;;;;;;;2.50;0.52;;;19.50;99.90;;;;;;5097025;28;20549;-73
2022/05/03 08:34:31;;;;;;;6.82;1.58;;;19.60;99.90;;;;;;5086159;28;20099;-75
2022/05/03 08:42:30;;;;;;;3.75;0.75;;;19.40;99.90;;;;;;5111152;28;20054;-75
2022/05/03 08:45:00;;;;;;;6.13;0.80;;;19.30;99.90;;;;;;5075814;28;20111;-75
2022/05/03 08:47:28;;;;;;;3.80;1.17;;;19.30;99.90;;;;;;5110096;28;20531;-75
2022/05/03 08:49:56;;;;;;;1.55;0.77;;;19.20;99.90;;;;;;5092712;28;20074;-75
2022/05/03 08:52:28;;;;;;;4.63;0.98;;;19.20;99.90;;;;;;5085638;28;20417;-74
2022/05/03 08:54:57;;;;;;;2.25;1.08;;;19.20;99.90;;;;;;5092501;28;20206;-74
2022/05/03 08:57:24;;;;;;;3.50;1.50;;;19.20;99.90;;;;;;5110428;28;20059;-75
2022/05/03 08:59:52;;;;;;;5.05;1.65;;;19.10;99.90;;;;;;5109102;28;20538;-74
2022/05/03 09:02:20;;;;;;;2.80;1.42;;;19.10;99.90;;;;;;5107682;28;20549;-74
2022/05/03 09:05:06;;;;;;;2.70;0.93;;;19.10;99.90;;;;;;5090939;28;20036;-76
2022/05/03 09:07:36;;;;;;;2.65;1.17;;;19.00;99.90;;;;;;5087850;28;20066;-75
2022/05/03 09:10:31;;;;;;;3.92;1.38;;;19.00;99.90;;;;;;5098751;28;20569;-74
2022/05/03 09:13:16;;;;;;;4.80;1.10;;;18.90;99.90;;;;;;5086911;28;20024;-75
2022/05/03 09:15:43;;;;;;;2.72;1.33;;;18.90;99.90;;;;;;5113967;28;20019;-74
2022/05/03 09:18:24;;;;;;;2.92;1.25;;;18.80;99.90;;;;;;5098704;28;20119;-74
2022/05/03 09:23:53;;;;;;;5.37;1.43;;;18.80;99.90;;;;;;5083193;28;20051;-74
2022/05/03 09:26:29;;;;;;;5.90;1.58;;;18.70;99.90;;;;;;5091994;28;20390;-76
2022/05/03 09:29:01;;;;;;;1.83;1.20;;;18.70;99.90;;;;;;5089553;28;20423;-73
2022/05/03 09:31:35;;;;;;;2.97;1.88;;;18.70;99.90;;;;;;5090983;28;20152;-74
2022/05/03 09:34:27;;;;;;;6.35;1.10;;;18.70;99.90;;;;;;5092066;28;20039;-76
2022/05/03 09:37:09;;;;;;;2.28;1.10;;;18.70;99.90;;;;;;5089737;28;20494;-75
2022/05/03 09:39:43;;;;;;;2.17;1.10;;;18.60;99.90;;;;;;5103756;28;20081;-75
2022/05/03 09:42:19;;;;;;;3.05;1.33;;;18.50;99.90;;;;;;5093003;28;20055;-75
2022/05/03 09:45:02;;;;;;;5.75;1.00;;;18.50;99.90;;;;;;5090663;28;20059;-75
2022/05/03 09:47:33;;;;;;;3.92;1.45;;;18.40;99.90;;;;;;5087799;28;20032;-75
2022/05/03 09:50:01;;;;;;;4.40;1.13;;;18.40;99.90;;;;;;5081362;28;20036;-75
2022/05/03 09:52:30;;;;;;;3.50;0.93;;;18.30;99.90;;;;;;5081301;28;20411;-75
2022/05/03 09:55:07;;;;;;;3.90;0.80;;;18.30;99.90;;;;;;5099533;28;20063;-75
2022/05/03 09:57:43;;;;;;;3.50;1.08;;;18.30;99.90;;;;;;5087655;28;20036;-74
2022/05/03 10:00:13;;;;;;;5.70;1.58;;;18.20;99.90;;;;;;5086032;28;20055;-75
2022/05/03 10:02:42;;;;;;;6.88;1.23;;;18.20;99.90;;;;;;5075577;28;20528;-75
2022/05/03 10:05:12;;;;;;;2.92;1.08;;;18.20;99.90;;;;;;5092480;28;20429;-76
2022/05/03 10:07:43;;;;;;;2.40;0.95;;;18.10;99.90;;;;;;5091354;28;20500;-75
2022/05/03 10:10:12;;;;;;;2.22;0.70;;;18.00;99.90;;;;;;5084591;28;20058;-75
2022/05/03 10:12:39;;;;;;;2.22;0.70;;;17.90;99.90;;;;;;5087582;28;20110;-75
2022/05/03 10:15:07;;;;;;;2.75;1.08;;;17.80;99.90;;;;;;5092339;28;20028;-75
2022/05/03 10:20:46;;;;;;;5.18;0.90;;;17.70;99.90;;;;;;5092218;28;20673;-75
2022/05/03 10:23:23;;;;;;;3.13;1.00;;;17.60;99.90;;;;;;5080611;28;20040;-75
2022/05/03 10:25:52;;;;;;;1.85;0.80;;;17.50;99.90;;;;;;5080333;28;20032;-75
2022/05/03 10:28:19;;;;;;;5.45;2.05;;;17.50;99.90;;;;;;5085076;28;20019;-74
2022/05/03 10:31:08;;;;;;;3.40;1.27;;;17.50;99.90;;;;;;5088723;28;20028;-76
2022/05/03 10:33:36;;;;;;;5.68;1.23;;;17.40;99.90;;;;;;5090330;28;20134;-76
2022/05/03 10:36:23;;;;;;;5.25;1.40;;;17.40;99.90;;;;;;5092018;28;20028;-74
2022/05/03 10:38:51;;;;;;;3.03;0.93;;;17.30;99.90;;;;;;5086799;28;20024;-74
2022/05/03 10:41:25;;;;;;;3.72;1.52;;;17.30;99.90;;;;;;5088120;28;20008;-75
2022/05/03 10:43:55;;;;;;;2.15;1.05;;;17.30;99.90;;;;;;5078657;28;20063;-75
2022/05/03 10:46:23;;;;;;;2.60;1.00;;;17.30;99.90;;;;;;5086048;28;20051;-76
2022/05/03 10:49:14;;;;;;;4.43;0.98;;;17.20;99.90;;;;;;5089395;28;20093;-76
2022/05/03 10:51:42;;;;;;;2.45;1.10;;;17.10;99.90;;;;;;5091411;28;20657;-75
2022/05/03 10:54:09;;;;;;;5.47;1.42;;;17.10;99.90;;;;;;5082134;28;20024;-74
2022/05/03 10:57:07;;;;;;;1.27;0.80;;;17.00;99.90;;;;;;5083984;28;20032;-75
2022/05/03 10:59:52;;;;;;;3.15;0.85;;;16.90;99.90;;;;;;5090541;28;20056;-76
2022/05/03 11:02:21;;;;;;;6.35;0.98;;;16.90;99.90;;;;;;5083131;28;20035;-74
2022/05/03 11:05:16;;;;;;;1.88;0.90;;;16.80;99.90;;;;;;5096714;28;20039;-74
2022/05/03 11:08:15;;;;;;;4.03;1.38;;;16.80;99.90;;;;;;5096014;28;20097;-76
2022/05/03 11:10:44;;;;;;;1.70;0.77;;;16.70;99.90;;;;;;5103805;28;20081;-75
2022/05/03 11:13:40;;;;;;;2.47;0.90;;;16.70;99.90;;;;;;5093385;28;20474;-75
2022/05/03 11:16:27;;;;;;;4.20;1.13;;;16.70;99.90;;;;;;5102495;28;20055;-76
2022/05/03 11:18:55;;;;;;;1.77;1.00;;;16.60;99.90;;;;;;5099580;28;20081;-75
2022/05/03 11:21:22;;;;;;;4.80;1.33;;;16.60;99.90;;;;;;5087739;28;20064;-74
2022/05/03 11:23:54;;;;;;;2.15;1.17;;;16.60;99.90;;;;;;5085615;28;20085;-75
2022/05/03 11:26:24;;;;;;;3.60;1.48;;;16.60;99.90;;;;;;5086960;28;20737;-75
2022/05/03 11:28:53;;;;;;;3.78;1.73;;;16.50;99.90;;;;;;5084646;28;20126;-75
2022/05/03 11:31:26;;;;;;;2.42;1.33;;;16.50;99.90;;;;;;5072370;28;20502;-75
2022/05/03 11:33:58;;;;;;;1.77;1.45;;;16.50;99.90;;;;;;5084780;28;20036;-75
2022/05/03 11:36:27;;;;;;;3.20;1.35;;;16.50;99.90;;;;;;5085826;28;20028;-74
2022/05/03 11:38:56;;;;;;;2.88;1.50;;;16.40;99.90;;;;;;5085425;28;20507;-75
2022/05/03 11:41:25;;;;;;;3.20;1.45;;;16.40;99.90;;;;;;5079602;28;20056;-75
2022/05/03 11:43:53;;;;;;;2.67;0.82;;;16.40;99.90;;;;;;5083454;28;20074;-79
2022/05/03 11:46:22;;;;;;;2.38;1.02;;;16.30;99.90;;;;;;5080063;28;20035;-75
2022/05/03 11:49:01;;;;;;;2.13;1.27;;;16.30;99.90;;;;;;5096314;28;20103;-73
2022/05/03 11:57:26;;;;;;;1.67;1.00;;;16.10;99.90;;;;;;5084379;28;20583;-76
2022/05/03 11:59:56;;;;;;;2.55;1.20;;;16.00;99.90;;;;;;5081457;28;20118;-75
2022/05/03 12:02:32;;;;;;;3.00;1.10;;;16.00;99.90;;;;;;5081770;28;20032;-75
2022/05/03 12:05:19;;;;;;;;;;;15.90;99.90;;;;;;5088282;28;20032;-76
2022/05/03 12:07:55;;;;;;;1.33;0.77;;;15.90;99.90;;;;;;5084093;28;20003;-75
2022/05/03 12:10:35;;;;;;;3.15;1.52;;;15.90;99.90;;;;;;5085759;28;20028;-74
2022/05/03 12:13:08;;;;;;;2.83;1.27;;;15.80;99.90;;;;;;5086395;28;20028;-77
2022/05/03 12:15:48;;;;;;;1.92;1.00;;;15.80;99.90;;;;;;5091014;28;20070;-76
2022/05/03 12:18:18;;;;;;;8.50;1.05;;;15.70;99.90;;;;;;5088911;28;20074;-74
2022/05/03 12:20:52;;;;;;;1.80;1.20;;;15.70;99.90;;;;;;5088070;28;20034;-74
2022/05/03 12:23:21;;;;;;;6.70;2.55;;;15.70;99.90;;;;;;5101520;28;20035;-74
2022/05/03 12:25:54;;;;;;;2.25;1.08;;;15.70;99.90;;;;;;5091752;28;20032;-75
2022/05/03 12:28:42;;;;;;;4.60;1.50;;;15.60;99.90;;;;;;5080249;28;20054;-74
2022/05/03 12:31:14;;;;;;;4.78;1.70;;;15.60;99.90;;;;;;5086520;28;20040;-74
2022/05/03 12:33:44;;;;;;;4.93;1.73;;;15.60;99.90;;;;;;5090369;28;20109;-74
2022/05/03 12:36:26;;;;;;;3.35;1.60;;;15.60;99.90;;;;;;5087269;28;20028;-74
2022/05/03 12:38:54;;;;;;;2.65;1.20;;;15.50;99.90;;;;;;5087325;28;20028;-76
2022/05/03 12:41:27;;;;;;;3.42;1.40;;;15.60;99.90;;;;;;5087621;28;20020;-76
2022/05/03 12:44:09;;;;;;;4.97;1.35;;;15.60;99.90;;;;;;5087644;28;20086;-75
2022/05/03 12:46:38;;;;;;;3.22;1.42;;;15.60;99.90;;;;;;5085876;28;20024;-76
2022/05/03 12:49:10;;;;;;;3.90;1.70;;;15.60;99.90;;;;;;5085951;28;20048;-77
2022/05/03 12:51:39;;;;;;;4.82;1.83;;;15.60;99.90;;;;;;5092670;28;20028;-75
2022/05/03 12:54:07;;;;;;;7.95;2.25;;;15.60;99.90;;;;;;5093208;28;20052;-76
2022/05/03 12:59:21;;;;;;;4.65;1.48;;;15.60;99.90;;;;;;5088808;28;20027;-75
2022/05/03 13:01:50;;;;;;;4.03;1.33;;;15.60;99.90;;;;;;5090047;28;20034;-77
2022/05/03 13:04:19;;;;;;;2.10;1.42;;;15.50;99.90;;;;;;5085346;28;20028;-76
2022/05/03 13:06:48;;;;;;;2.22;1.73;;;15.40;99.90;;;;;;5099006;28;20027;-77
2022/05/03 13:09:16;;;;;;;3.55;1.90;;;15.40;99.90;;;;;;5093484;28;20031;-78
2022/05/03 13:11:44;;;;;;;2.10;1.55;;;15.40;99.90;;;;;;5090749;28;20157;-76
2022/05/03 13:14:13;;;;;;;3.80;2.30;;;15.40;99.90;;;;;;5084246;28;20479;-77
2022/05/03 13:16:41;;;;;;;4.40;2.20;;;15.40;99.90;;;;;;5078960;28;20052;-77
2022/05/03 13:19:08;;;;;;;4.18;1.50;;;15.40;99.90;;;;;;5075131;28;20063;-78
2022/05/03 13:21:36;;;;;;;8.98;1.90;;;15.40;99.90;;;;;;5073953;28;20037;-77
2022/05/03 13:24:05;;;;;;;4.15;1.40;;;15.40;99.90;;;;;;5073223;28;20044;-75
2022/05/03 13:26:33;;;;;;;3.67;1.80;;;15.40;99.90;;;;;;5073316;28;20070;-76
2022/05/03 13:29:20;;;;;;;2.97;1.60;;;15.40;99.90;;;;;;5076309;28;20036;-77
2022/05/03 13:31:48;;;;;;;2.85;1.38;;;15.40;99.90;;;;;;5078894;28;20078;-76
2022/05/03 13:34:15;;;;;;;4.40;1.55;;;15.30;99.90;;;;;;5089518;28;20052;-76
2022/05/03 13:42:13;;;;;;;6.82;1.90;;;15.20;99.90;;;;;;5089061;28;20124;-77
2022/05/03 13:44:41;;;;;;;7.05;1.90;;;15.10;99.90;;;;;;5091117;28;20028;-77
2022/05/03 13:47:09;;;;;;;6.68;1.65;;;15.00;99.90;;;;;;5083460;28;20035;-77
2022/05/03 13:49:37;;;;;;;5.65;1.92;;;14.90;99.90;;;;;;5092358;28;20043;-75
2022/05/03 13:52:05;;;;;;;7.00;2.47;;;14.90;99.90;;;;;;5089229;28;20035;-75